»·PEaware :: UAL935 KCOS-KDEN

UAL935 :: KCOS-KDEN

FLIGHT INFORMATION

Flight Status: Arrived
Operator:
United Airlines
More flights by this operator :: More flights under this callsign
Pilot: Michael S. (20314)
Aircraft: AIRBUS A321
(A321)
More flights by this aircraft type
Origin: KCOS City Of Colorado Springs Mun
United States
Destination: KDEN Denver Intl
United States
More flights between these airports :: More routes between these airports
Route: +ADANE V389 LUFSE JEFEL
File this flight plan on PilotEdge
Remarks: RMK / SIMBRIEF
Altitude:
(Current/Filed)
12,000ft
Speed:
(Current/Filed)
353kts
Departed: 24-Nov-20 05:57 PM
Arrived: 24-Nov-20 06:27 PM
Distance/Time
Traveled:
63nm/0:29
Distance/Time
To Go:
Arrived

Flight Plot

Page will automatically refresh every two minutes.

Flight plan parsing failed; only flown route is shown


Map Options




Map Legend


Flown Route
Filed Route
Departure Airport
Arrival Airport
Navaid (VOR, NDB)
Fix

Horizontal Profiles

Position Reports

Time Latitude Longitude Heading Altitude Ground
Speed
24-Nov-20 17:18 38.797936 -104.701548 100 6196ft 0kts
24-Nov-20 17:19 38.797936 -104.701548 100 6196ft 0kts
24-Nov-20 17:20 38.797936 -104.701548 100 6196ft 0kts
24-Nov-20 17:21 38.797936 -104.701548 100 6196ft 0kts
24-Nov-20 17:22 38.797936 -104.701548 100 6196ft 0kts
24-Nov-20 17:23 38.797936 -104.701548 100 6196ft 0kts
24-Nov-20 17:24 38.797936 -104.701548 100 6196ft 0kts
24-Nov-20 17:25 38.797936 -104.701548 100 6196ft 0kts
24-Nov-20 17:26 38.797936 -104.701548 100 6196ft 0kts
24-Nov-20 17:27 38.797936 -104.701548 100 6196ft 0kts
24-Nov-20 17:28 38.797936 -104.701548 100 6196ft 0kts
24-Nov-20 17:29 38.797936 -104.701548 100 6196ft 0kts
24-Nov-20 17:30 38.797936 -104.701548 100 6196ft 0kts
24-Nov-20 17:31 38.797936 -104.701548 100 6196ft 0kts
24-Nov-20 17:32 38.797936 -104.701548 100 6196ft 0kts
24-Nov-20 17:33 38.797936 -104.701548 100 6196ft 0kts
24-Nov-20 17:34 38.797936 -104.701548 100 6196ft 0kts
24-Nov-20 17:35 38.797936 -104.701548 100 6196ft 0kts
24-Nov-20 17:36 38.797936 -104.701548 100 6196ft 0kts
24-Nov-20 17:37 38.797936 -104.701548 100 6196ft 0kts
24-Nov-20 17:38 38.797936 -104.701548 100 6196ft 0kts
24-Nov-20 17:39 38.797936 -104.701548 100 6196ft 0kts
24-Nov-20 17:40 38.797978 -104.701868 90 6196ft 1kts
24-Nov-20 17:41 38.798294 -104.702499 123 6196ft 2kts
24-Nov-20 17:42 38.798452 -104.702938 29 6196ft 1kts
24-Nov-20 17:43 38.798361 -104.702925 358 6196ft 0kts
24-Nov-20 17:44 38.798361 -104.702925 358 6196ft 0kts
24-Nov-20 17:45 38.798361 -104.702925 358 6196ft 0kts
24-Nov-20 17:46 38.798361 -104.702925 358 6196ft 0kts
24-Nov-20 17:47 38.798808 -104.702936 358 6196ft 7kts
24-Nov-20 17:48 38.800974 -104.700991 3 6196ft 11kts
24-Nov-20 17:49 38.803118 -104.698849 90 6196ft 14kts
24-Nov-20 17:50 38.803112 -104.693319 89 6196ft 16kts
24-Nov-20 17:51 38.803161 -104.687908 68 6196ft 9kts
24-Nov-20 17:52 38.806310 -104.687649 0 6196ft 13kts
24-Nov-20 17:53 38.810440 -104.687641 359 6196ft 15kts
24-Nov-20 17:54 38.814942 -104.687629 0 6196ft 8kts
24-Nov-20 17:55 38.815925 -104.687133 90 6196ft 0kts
24-Nov-20 17:56 38.814144 -104.685739 179 6196ft 49kts
24-Nov-20 17:57 38.765818 -104.686482 181 7668ft 230kts
24-Nov-20 17:58 38.697419 -104.687637 180 9576ft 279kts
24-Nov-20 17:59 38.617613 -104.670134 132 11383ft 325kts
24-Nov-20 18:00 38.625033 -104.557416 37 11986ft 398kts
24-Nov-20 18:01 38.728150 -104.506607 21 11994ft 399kts
24-Nov-20 18:02 38.829747 -104.449639 24 11997ft 398kts
24-Nov-20 18:04 38.932894 -104.399744 8 11996ft 398kts
24-Nov-20 18:05 39.043414 -104.393014 1 11998ft 398kts
24-Nov-20 18:06 39.154031 -104.387680 1 11998ft 398kts
24-Nov-20 18:07 39.257449 -104.345443 36 12004ft 398kts
24-Nov-20 18:08 39.348285 -104.264880 17 11980ft 397kts
24-Nov-20 18:09 39.451837 -104.299778 332 11983ft 389kts
24-Nov-20 18:10 39.540385 -104.358888 333 11994ft 350kts
24-Nov-20 18:11 39.627242 -104.416185 333 12004ft 351kts
24-Nov-20 18:12 39.712822 -104.472684 333 12000ft 322kts
24-Nov-20 18:13 39.786435 -104.521362 333 12005ft 293kts
24-Nov-20 18:14 39.859081 -104.569424 336 11964ft 291kts
24-Nov-20 18:15 39.937146 -104.566595 8 11748ft 265kts
24-Nov-20 18:16 40.008263 -104.553892 8 11191ft 262kts
24-Nov-20 18:17 40.082087 -104.540450 8 9618ft 267kts
24-Nov-20 18:18 40.151839 -104.539592 358 8092ft 243kts
24-Nov-20 18:19 40.203401 -104.574360 270 7001ft 205kts
24-Nov-20 18:20 40.181545 -104.633287 197 7013ft 195kts
24-Nov-20 18:21 40.129584 -104.653805 197 6999ft 195kts
24-Nov-20 18:21 40.086534 -104.671403 201 6992ft 190kts
24-Nov-20 18:23 40.034274 -104.684647 182 7002ft 162kts
24-Nov-20 18:23 39.996660 -104.685630 181 7002ft 162kts
24-Nov-20 18:24 39.952804 -104.686191 182 6555ft 149kts
24-Nov-20 18:26 39.905112 -104.686554 182 5649ft 144kts
24-Nov-20 18:26 39.882589 -104.686975 180 5443ft 6kts
24-Nov-20 18:27 39.877185 -104.686260 152 5443ft 1kts
24-Nov-20 18:28 39.876935 -104.686091 152 5443ft 0kts
24-Nov-20 18:29 39.876539 -104.685825 152 5443ft 8kts
24-Nov-20 18:30 39.874137 -104.684531 118 5443ft 10kts
24-Nov-20 18:31 39.871363 -104.683821 180 5443ft 13kts
24-Nov-20 18:32 39.867029 -104.683849 180 5443ft 16kts
24-Nov-20 18:33 39.862157 -104.683853 179 5443ft 11kts
24-Nov-20 18:34 39.861082 -104.679503 102 5443ft 10kts
24-Nov-20 18:35 39.859586 -104.677844 178 5443ft 1kts
24-Nov-20 18:36 39.859440 -104.677842 179 5443ft 0kts
24-Nov-20 18:37 39.859440 -104.677842 179 5443ft 0kts

Navigation Log

Ident Type
Flight plan parsing failed, navigation log unavailable